createdAt,value
2014-07-07T00:00:33.533Z,70.53
2014-07-07T00:01:38.223Z,70.88
2014-07-07T00:02:43.209Z,70.54
2014-07-07T00:03:47.898Z,70.53
2014-07-07T00:04:52.604Z,70.43
2014-07-07T00:05:57.293Z,70.42
2014-07-07T00:07:01.983Z,70.71
2014-07-07T00:08:06.970Z,71.1
2014-07-07T00:09:11.659Z,70.9
2014-07-07T00:10:16.349Z,71.38
2014-07-07T00:11:21.022Z,72.32
2014-07-07T00:12:26.025Z,72.24
2014-07-07T00:13:30.698Z,71.52
2014-07-07T00:14:34.701Z,71.1
2014-07-07T00:15:39.687Z,71.57
2014-07-07T00:16:44.376Z,72.08
2014-07-07T00:17:49.066Z,72.46
2014-07-07T00:18:54.053Z,73.14
2014-07-07T00:19:58.742Z,72.56
2014-07-07T00:21:03.432Z,72.65
2014-07-07T00:22:08.418Z,72.14
2014-07-07T00:23:13.108Z,72.37
2014-07-07T00:24:17.798Z,71.63
2014-07-07T00:25:22.783Z,71.35
2014-07-07T00:26:27.771Z,71.55
2014-07-07T00:27:32.459Z,70.93
2014-07-07T00:28:37.134Z,71.15
2014-07-07T00:29:42.121Z,71.55
2014-07-07T00:30:46.810Z,71.69
2014-07-07T00:31:51.500Z,71.64
2014-07-07T00:32:56.486Z,71.32
2014-07-07T00:34:01.175Z,71.96
2014-07-07T00:35:05.865Z,72.31
2014-07-07T00:36:10.539Z,71.99
2014-07-07T00:37:15.228Z,71.04
2014-07-07T00:38:20.215Z,72.08
2014-07-07T00:39:24.904Z,72.81
2014-07-07T00:40:29.594Z,72.5
2014-07-07T00:41:34.284Z,72.5
2014-07-07T00:42:38.957Z,72.3
2014-07-07T00:43:43.648Z,71.38
2014-07-07T00:44:48.337Z,71.98
2014-07-07T00:45:53.027Z,71.64
2014-07-07T00:46:57.716Z,71.03
2014-07-07T00:48:02.406Z,70.98
2014-07-07T00:49:07.095Z,71.66
2014-07-07T00:50:11.785Z,71.2
2014-07-07T00:51:16.458Z,71.59
2014-07-07T00:52:21.148Z,71.87
2014-07-07T00:53:25.838Z,72.27
2014-07-07T00:54:30.527Z,72.36
2014-07-07T00:55:35.216Z,73.14
2014-07-07T00:56:39.923Z,73.55
2014-07-07T00:57:44.611Z,73.58
2014-07-07T00:58:49.302Z,73.21
2014-07-07T00:59:53.991Z,73.99
2014-07-07T01:00:58.681Z,73.61
2014-07-07T01:02:03.667Z,73.68
2014-07-07T01:03:08.341Z,73.66
2014-07-07T01:04:13.030Z,72.4
2014-07-07T01:05:17.720Z,72.69
2014-07-07T01:06:22.409Z,72.66
2014-07-07T01:07:27.099Z,72.23
2014-07-07T01:08:31.788Z,73.04
2014-07-07T01:09:36.775Z,72.24
2014-07-07T01:10:41.762Z,71.77
2014-07-07T01:11:46.451Z,72.41
2014-07-07T01:12:51.141Z,73.24
2014-07-07T01:13:55.830Z,73.42
2014-07-07T01:15:00.520Z,72.73
2014-07-07T01:16:05.505Z,71.5
2014-07-07T01:17:10.493Z,71.75
2014-07-07T01:18:15.181Z,71.36
2014-07-07T01:19:19.872Z,71.44
2014-07-07T01:20:24.546Z,71.97
2014-07-07T01:21:29.235Z,72.66
2014-07-07T01:22:33.925Z,72.35
2014-07-07T01:23:38.614Z,72.1
2014-07-07T01:24:42.616Z,72.24
2014-07-07T01:25:47.306Z,72.16
2014-07-07T01:26:51.995Z,71.68
2014-07-07T01:27:56.685Z,71.07
2014-07-07T01:29:01.672Z,70.86
2014-07-07T01:30:06.361Z,71.25
2014-07-07T01:31:11.051Z,72.02
2014-07-07T01:32:15.741Z,72.48
2014-07-07T01:33:20.430Z,72.06
2014-07-07T01:34:25.120Z,71.96
2014-07-07T01:35:30.106Z,72.38
2014-07-07T01:36:34.795Z,72.42
2014-07-07T01:37:39.485Z,72.16
2014-07-07T01:38:44.175Z,71.59
2014-07-07T01:39:48.864Z,71.5
2014-07-07T01:40:53.851Z,70.94
2014-07-07T01:41:58.540Z,71.67
2014-07-07T01:43:03.230Z,71.65
2014-07-07T01:44:07.919Z,71.84
2014-07-07T01:45:12.922Z,71.86
2014-07-07T01:46:17.610Z,71.89
2014-07-07T01:47:22.598Z,71.81
2014-07-07T01:48:27.287Z,71.07
2014-07-07T01:49:31.977Z,70.98
2014-07-07T01:50:36.666Z,70.86
2014-07-07T01:51:40.668Z,71.22
2014-07-07T01:52:45.358Z,71.41
2014-07-07T01:53:50.345Z,71.4
2014-07-07T01:54:55.034Z,70.92
2014-07-07T01:55:59.724Z,70.98
2014-07-07T01:57:04.413Z,71.27
2014-07-07T01:58:08.416Z,71.64
2014-07-07T01:59:13.104Z,71.03
2014-07-07T02:00:17.795Z,71.09
2014-07-07T02:01:22.780Z,71.17
2014-07-07T02:02:27.469Z,71.08
2014-07-07T02:03:32.457Z,71.75
2014-07-07T02:04:37.130Z,72.58
2014-07-07T02:05:41.820Z,72.21
2014-07-07T02:06:46.510Z,71.49
2014-07-07T02:07:51.200Z,71.54
2014-07-07T02:08:56.186Z,71.9
2014-07-07T02:10:00.860Z,71.62
2014-07-07T02:11:05.878Z,71.54
2014-07-07T02:12:10.567Z,71.85
2014-07-07T02:13:15.257Z,71.1
2014-07-07T02:14:19.930Z,70.75
2014-07-07T02:15:24.620Z,72.24
2014-07-07T02:16:29.310Z,71.96
2014-07-07T02:17:34.020Z,71.97
2014-07-07T02:18:38.739Z,71.96
2014-07-07T02:19:43.474Z,72.18
2014-07-07T02:20:48.208Z,71.76
2014-07-07T02:21:52.942Z,71.49
2014-07-07T02:22:57.949Z,71.58
2014-07-07T02:24:02.655Z,71.68
2014-07-07T02:25:07.642Z,71.07
2014-07-07T02:26:12.348Z,71.99
2014-07-07T02:27:17.067Z,72.62
2014-07-07T02:28:21.763Z,72.33
2014-07-07T02:29:26.755Z,70.95
2014-07-07T02:30:31.449Z,70.71
2014-07-07T02:31:36.130Z,70.8
2014-07-07T02:32:40.823Z,71.46
2014-07-07T02:33:45.514Z,71.48
2014-07-07T02:34:50.206Z,72.57
2014-07-07T02:35:54.897Z,71.97
2014-07-07T02:36:59.590Z,71.4
2014-07-07T02:38:04.264Z,72.22
2014-07-07T02:39:09.251Z,72.44
2014-07-07T02:40:13.943Z,72.63
2014-07-07T02:41:18.633Z,72.51
2014-07-07T02:42:23.323Z,72.05
2014-07-07T02:43:28.012Z,72.37
2014-07-07T02:44:32.686Z,72.98
2014-07-07T02:45:37.375Z,72.78
2014-07-07T02:46:42.362Z,71.93
2014-07-07T02:47:47.036Z,73.57
2014-07-07T02:48:52.022Z,73.39
2014-07-07T02:49:56.713Z,72.45
2014-07-07T02:51:00.715Z,72.59
2014-07-07T02:52:05.404Z,72.92
2014-07-07T02:53:10.389Z,74.27
2014-07-07T02:54:15.080Z,74.48
2014-07-07T02:55:20.065Z,73.5
2014-07-07T02:56:24.740Z,72.74
2014-07-07T02:57:29.727Z,72.59
2014-07-07T02:58:34.416Z,73.25
2014-07-07T02:59:39.107Z,73.06
2014-07-07T03:00:44.092Z,73.33
2014-07-07T03:01:48.781Z,73.51
2014-07-07T03:02:53.472Z,73.52
2014-07-07T03:03:58.160Z,73.64
2014-07-07T03:05:02.851Z,73.48
2014-07-07T03:06:07.539Z,73.31
2014-07-07T03:07:12.230Z,72.47
2014-07-07T03:08:16.903Z,72.1
2014-07-07T03:09:21.593Z,72.8
2014-07-07T03:10:26.580Z,73.25
2014-07-07T03:11:31.566Z,73.26
2014-07-07T03:12:36.240Z,73.05
2014-07-07T03:13:40.929Z,73.37
2014-07-07T03:14:45.916Z,73.17
2014-07-07T03:15:50.902Z,72.23
2014-07-07T03:16:55.607Z,71.72
2014-07-07T03:18:00.281Z,71.82
2014-07-07T03:19:05.268Z,72.65
2014-07-07T03:20:09.957Z,73.42
2014-07-07T03:21:14.648Z,73.4
2014-07-07T03:22:19.337Z,73.09
2014-07-07T03:23:24.027Z,73.25
2014-07-07T03:24:28.700Z,73.73
2014-07-07T03:25:33.687Z,73.83
2014-07-07T03:26:38.376Z,72.6
2014-07-07T03:27:43.363Z,73.3
2014-07-07T03:28:48.334Z,73.49
2014-07-07T03:29:53.039Z,73.35
2014-07-07T03:30:57.729Z,73
2014-07-07T03:32:02.699Z,73.45
2014-07-07T03:33:07.389Z,73.08
2014-07-07T03:34:12.079Z,73.36
2014-07-07T03:35:16.767Z,73.78
2014-07-07T03:36:21.442Z,73.24
2014-07-07T03:37:26.131Z,73.12
2014-07-07T03:38:30.821Z,73.73
2014-07-07T03:39:35.808Z,73.04
2014-07-07T03:40:40.497Z,72.5
2014-07-07T03:41:45.187Z,72.05
2014-07-07T03:42:49.860Z,71.77
2014-07-07T03:43:54.550Z,71.65
2014-07-07T03:44:59.239Z,72.89
2014-07-07T03:46:04.226Z,72.45
2014-07-07T03:47:08.915Z,72.52
2014-07-07T03:48:13.589Z,72.81
2014-07-07T03:49:18.576Z,73.7
2014-07-07T03:50:23.562Z,72.42
2014-07-07T03:51:28.251Z,71.92
2014-07-07T03:52:32.925Z,72.58
2014-07-07T03:53:37.615Z,71.85
2014-07-07T03:54:42.304Z,72.08
2014-07-07T03:55:46.994Z,71.42
2014-07-07T03:56:51.683Z,72.23
2014-07-07T03:57:56.670Z,71.57
2014-07-07T03:59:01.656Z,71.73
2014-07-07T04:00:06.329Z,71.79
2014-07-07T04:01:11.019Z,72.52
2014-07-07T04:02:16.006Z,72.48
2014-07-07T04:03:20.695Z,72.01
2014-07-07T04:04:25.385Z,72.25
2014-07-07T04:05:30.074Z,72.55
2014-07-07T04:06:34.748Z,72.84
2014-07-07T04:07:39.438Z,73.05
2014-07-07T04:08:44.426Z,71.89
2014-07-07T04:09:48.428Z,72.41
2014-07-07T04:10:53.399Z,72.28
2014-07-07T04:11:58.384Z,71.93
2014-07-07T04:13:03.372Z,71.68
2014-07-07T04:14:08.060Z,70.99
2014-07-07T04:15:12.735Z,70.37
2014-07-07T04:16:17.423Z,70.53
2014-07-07T04:17:22.114Z,71
2014-07-07T04:18:26.788Z,71.64
2014-07-07T04:19:31.477Z,71.56
2014-07-07T04:20:36.166Z,71.68
2014-07-07T04:21:40.840Z,71.32
2014-07-07T04:22:46.124Z,70.8
2014-07-07T04:23:50.829Z,70.58
2014-07-07T04:24:55.519Z,69.92
2014-07-07T04:26:00.208Z,70.95
2014-07-07T04:27:04.882Z,71.26
2014-07-07T04:28:09.571Z,70.71
2014-07-07T04:29:14.558Z,70.79
2014-07-07T04:30:19.247Z,71.1
2014-07-07T04:31:23.938Z,72.16
2014-07-07T04:32:28.612Z,71.75
2014-07-07T04:33:33.598Z,71.59
2014-07-07T04:34:38.288Z,70.95
2014-07-07T04:35:43.571Z,70.84
2014-07-07T04:36:48.556Z,70.76
2014-07-07T04:37:53.247Z,70.86
2014-07-07T04:38:57.936Z,70.84
2014-07-07T04:40:02.906Z,70.97
2014-07-07T04:41:07.908Z,71.47
2014-07-07T04:42:12.895Z,70.57
2014-07-07T04:43:17.865Z,69.81
2014-07-07T04:44:22.556Z,71.22
2014-07-07T04:45:27.245Z,71.94
2014-07-07T04:46:31.950Z,71.59
2014-07-07T04:47:36.640Z,71.53
2014-07-07T04:48:41.329Z,71.25
2014-07-07T04:49:46.003Z,71.51
2014-07-07T04:50:50.693Z,71.48
2014-07-07T04:51:54.695Z,71.99
2014-07-07T04:52:59.385Z,72.42
2014-07-07T04:54:04.058Z,73.27
2014-07-07T04:55:08.747Z,73.07
2014-07-07T04:56:13.734Z,72.54
2014-07-07T04:57:18.722Z,72.41
2014-07-07T04:58:23.412Z,72.02
2014-07-07T04:59:28.086Z,72.42
2014-07-07T05:00:32.775Z,71.91
2014-07-07T05:01:37.465Z,71.43
2014-07-07T05:02:42.154Z,71.54
2014-07-07T05:03:47.125Z,71.38
2014-07-07T05:04:51.814Z,71.64
2014-07-07T05:05:56.802Z,71.63
2014-07-07T05:07:01.491Z,71.48
2014-07-07T05:08:06.181Z,70.92
2014-07-07T05:09:11.448Z,70.46
2014-07-07T05:10:16.138Z,70.79
2014-07-07T05:11:20.826Z,70.79
2014-07-07T05:12:25.517Z,71.05
2014-07-07T05:13:30.206Z,70.8
2014-07-07T05:14:34.896Z,70.79
2014-07-07T05:15:39.585Z,70.7
2014-07-07T05:16:44.259Z,69.55
2014-07-07T05:17:48.949Z,70.75
2014-07-07T05:18:53.638Z,69.88
2014-07-07T05:19:58.625Z,69.22
2014-07-07T05:21:03.330Z,70.44
2014-07-07T05:22:08.020Z,69.58
2014-07-07T05:23:12.694Z,70.12
2014-07-07T05:24:17.679Z,71.42
2014-07-07T05:25:22.369Z,70.91
2014-07-07T05:26:27.355Z,70.62
2014-07-07T05:27:32.046Z,70.97
2014-07-07T05:28:36.719Z,70.03
2014-07-07T05:29:40.721Z,70.77
2014-07-07T05:30:45.707Z,70.8
2014-07-07T05:31:50.398Z,71.51
2014-07-07T05:32:55.086Z,71.43
2014-07-07T05:33:59.760Z,70.44
2014-07-07T05:35:04.450Z,69.45
2014-07-07T05:36:09.734Z,70.66
2014-07-07T05:37:14.422Z,71.79
2014-07-07T05:38:19.394Z,72.32
2014-07-07T05:39:24.083Z,71.69
2014-07-07T05:40:29.069Z,70.92
2014-07-07T05:41:33.743Z,70.67
2014-07-07T05:42:38.730Z,70.49
2014-07-07T05:43:43.420Z,70.72
2014-07-07T05:44:48.109Z,71.26
2014-07-07T05:45:52.782Z,71.11
2014-07-07T05:46:57.472Z,71.8
2014-07-07T05:48:02.162Z,71.7
2014-07-07T05:49:06.836Z,72.02
2014-07-07T05:50:11.526Z,70.89
2014-07-07T05:51:16.216Z,70.57
2014-07-07T05:52:21.202Z,70.84
2014-07-07T05:53:26.190Z,70.94
2014-07-07T05:54:30.879Z,70.75
2014-07-07T05:55:35.865Z,71.01
2014-07-07T05:56:40.539Z,71.56
2014-07-07T05:57:45.229Z,71.35
2014-07-07T05:58:50.215Z,70.47
2014-07-07T05:59:54.905Z,70.96
2014-07-07T06:00:59.579Z,71.36
2014-07-07T06:02:04.565Z,70.34
2014-07-07T06:03:09.254Z,69.59
2014-07-07T06:04:14.241Z,69.07
2014-07-07T06:05:18.914Z,68.92
2014-07-07T06:06:23.604Z,69.49
2014-07-07T06:07:28.294Z,70.42
2014-07-07T06:08:33.280Z,71.84
2014-07-07T06:09:37.954Z,70.54
2014-07-07T06:10:42.643Z,71.15
2014-07-07T06:11:47.630Z,71.51
2014-07-07T06:12:52.320Z,70.84
2014-07-07T06:13:56.994Z,69.79
2014-07-07T06:15:01.683Z,69.81
2014-07-07T06:16:06.372Z,69.13
2014-07-07T06:17:11.359Z,69.36
2014-07-07T06:18:16.048Z,68.35
2014-07-07T06:19:21.035Z,62.92
2014-07-07T06:20:25.724Z,65.23
2014-07-07T06:21:30.414Z,65.51
2014-07-07T06:22:35.119Z,67.12
2014-07-07T06:23:39.809Z,68.76
2014-07-07T06:24:44.499Z,68.5
2014-07-07T06:25:49.204Z,68.01
2014-07-07T06:26:54.486Z,68.81
2014-07-07T06:27:59.176Z,68.96
2014-07-07T06:29:03.850Z,69.92
2014-07-07T06:30:08.542Z,70.43
2014-07-07T06:31:13.230Z,70.45
2014-07-07T06:32:18.217Z,70.53
2014-07-07T06:33:22.892Z,71.42
2014-07-07T06:34:27.580Z,71
2014-07-07T06:35:32.270Z,69.73
2014-07-07T06:36:36.960Z,68.93
2014-07-07T06:37:41.634Z,70.31
2014-07-07T06:38:46.620Z,71.03
2014-07-07T06:39:51.309Z,70.25
2014-07-07T06:40:55.999Z,69.72
2014-07-07T06:42:00.672Z,70.57
2014-07-07T06:43:05.660Z,70.39
2014-07-07T06:44:10.646Z,71.13
2014-07-07T06:45:15.336Z,71.12
2014-07-07T06:46:20.010Z,71.72
2014-07-07T06:47:24.699Z,71.62
2014-07-07T06:48:29.388Z,69.86
2014-07-07T06:49:34.078Z,68.76
2014-07-07T06:50:38.752Z,70.58
2014-07-07T06:51:43.441Z,70.63
2014-07-07T06:52:48.131Z,70.71
2014-07-07T06:53:52.820Z,70.41
2014-07-07T06:54:57.510Z,71.46
2014-07-07T06:56:02.496Z,70.97
2014-07-07T06:57:07.482Z,70.91
2014-07-07T06:58:12.172Z,70.69
2014-07-07T06:59:16.846Z,69.56
2014-07-07T07:00:21.535Z,69.98
2014-07-07T07:01:26.225Z,69.89
2014-07-07T07:02:30.914Z,70.78
2014-07-07T07:03:35.901Z,71
2014-07-07T07:04:40.589Z,71.4
2014-07-07T07:05:45.264Z,70.01
2014-07-07T07:06:49.956Z,69.68
2014-07-07T07:07:54.644Z,68.71
2014-07-07T07:08:59.319Z,68.84
2014-07-07T07:10:04.008Z,68.9
2014-07-07T07:11:08.682Z,69.12
2014-07-07T07:12:13.387Z,68.69
2014-07-07T07:13:18.077Z,66.07
2014-07-07T07:14:23.063Z,68.87
2014-07-07T07:15:27.753Z,68.9
2014-07-07T07:16:32.442Z,67.21
2014-07-07T07:17:37.132Z,67.12
2014-07-07T07:18:42.415Z,68.05
2014-07-07T07:19:47.402Z,69.17
2014-07-07T07:20:52.685Z,67.61
2014-07-07T07:21:57.374Z,67.06
2014-07-07T07:23:02.048Z,68.44
2014-07-07T07:24:06.739Z,68.39
2014-07-07T07:25:11.725Z,68.05
2014-07-07T07:26:16.414Z,67.32
2014-07-07T07:27:21.400Z,67.74
2014-07-07T07:28:26.387Z,67.6
2014-07-07T07:29:31.060Z,67.47
2014-07-07T07:30:35.751Z,67.24
2014-07-07T07:31:40.439Z,65.04
2014-07-07T07:32:45.130Z,66.2
2014-07-07T07:33:49.803Z,66.93
2014-07-07T07:34:54.493Z,66.71
2014-07-07T07:35:59.182Z,66.02
2014-07-07T07:37:03.887Z,66.65
2014-07-07T07:38:08.874Z,67.02
2014-07-07T07:39:13.860Z,67.88
2014-07-07T07:40:18.847Z,64.85
2014-07-07T07:41:23.833Z,66.1
2014-07-07T07:42:27.852Z,66.84
2014-07-07T07:43:32.540Z,67.29
2014-07-07T07:44:37.527Z,66.99
2014-07-07T07:45:42.216Z,66.47
2014-07-07T07:46:46.921Z,67.52
2014-07-07T07:47:51.611Z,67.14
2014-07-07T07:48:56.800Z,66.97
2014-07-07T07:50:01.490Z,66.49
2014-07-07T07:51:06.164Z,67.18
2014-07-07T07:52:10.853Z,67.36
2014-07-07T07:53:15.543Z,67.75
2014-07-07T07:54:20.530Z,66.96
2014-07-07T07:55:25.203Z,67.23
2014-07-07T07:56:29.892Z,66.24
2014-07-07T07:57:34.584Z,67.32
2014-07-07T07:58:39.273Z,67
2014-07-07T07:59:43.947Z,67.31
2014-07-07T08:00:48.637Z,68.79
2014-07-07T08:01:53.327Z,67.23
2014-07-07T08:02:58.017Z,66.67
2014-07-07T08:04:02.706Z,66.94
2014-07-07T08:05:07.380Z,68.28
2014-07-07T08:06:12.365Z,67.52
2014-07-07T08:07:17.056Z,67.82
2014-07-07T08:08:22.042Z,67.74
2014-07-07T08:09:27.029Z,67.22
2014-07-07T08:10:31.703Z,66.46
2014-07-07T08:11:36.392Z,66.2
2014-07-07T08:12:41.081Z,65.39
2014-07-07T08:13:46.068Z,64.89
2014-07-07T08:14:50.757Z,64.2
2014-07-07T08:15:55.447Z,65.87
2014-07-07T08:17:00.433Z,66.75
2014-07-07T08:18:05.419Z,67.04
2014-07-07T08:19:10.108Z,66.48
2014-07-07T08:20:14.799Z,65.26
2014-07-07T08:21:19.488Z,65.51
2014-07-07T08:22:24.177Z,66.48
2014-07-07T08:23:28.866Z,66.44
2014-07-07T08:24:33.166Z,66.37
2014-07-07T08:25:37.856Z,67.1
2014-07-07T08:26:42.544Z,66.89
2014-07-07T08:27:47.530Z,67.53
2014-07-07T08:28:52.205Z,67.54
2014-07-07T08:29:56.895Z,67.5
2014-07-07T08:31:01.584Z,67.72
2014-07-07T08:32:06.274Z,68.11
2014-07-07T08:33:11.260Z,68.41
2014-07-07T08:34:15.934Z,67.61
2014-07-07T08:35:20.624Z,68.16
2014-07-07T08:36:25.610Z,68.75
2014-07-07T08:37:30.315Z,65.66
2014-07-07T08:38:35.005Z,66.89
2014-07-07T08:39:39.696Z,67.94
2014-07-07T08:40:44.370Z,69.11
2014-07-07T08:41:49.058Z,68.85
2014-07-07T08:42:54.061Z,68.45
2014-07-07T08:43:59.048Z,68.31
2014-07-07T08:45:03.737Z,68.22
2014-07-07T08:46:08.411Z,68.5
2014-07-07T08:47:13.101Z,68.87
2014-07-07T08:48:17.790Z,68.13
2014-07-07T08:49:22.480Z,68.83
2014-07-07T08:50:27.451Z,69.97
2014-07-07T08:51:32.171Z,69.58
2014-07-07T08:52:36.893Z,71
2014-07-07T08:53:41.879Z,70.79
2014-07-07T08:54:46.568Z,68.78
2014-07-07T08:55:50.570Z,67.66
2014-07-07T08:56:55.557Z,68.04
2014-07-07T08:58:00.247Z,68.23
2014-07-07T08:59:04.937Z,67.51
2014-07-07T09:00:09.626Z,67.98
2014-07-07T09:01:14.301Z,67.58
2014-07-07T09:02:18.989Z,67.6
2014-07-07T09:03:23.976Z,68.12
2014-07-07T09:04:28.665Z,68.37
2014-07-07T09:05:33.355Z,68.44
2014-07-07T09:06:38.045Z,68.93
2014-07-07T09:07:42.733Z,70.46
2014-07-07T09:08:47.424Z,67.71
2014-07-07T09:09:52.113Z,67.21
2014-07-07T09:10:56.803Z,67.68
2014-07-07T09:12:01.789Z,68
2014-07-07T09:13:06.776Z,66.73
2014-07-07T09:14:11.466Z,66.06
2014-07-07T09:15:16.170Z,66.21
2014-07-07T09:16:20.860Z,65.57
2014-07-07T09:17:25.565Z,65.69
2014-07-07T09:18:30.270Z,65.45
2014-07-07T09:19:34.961Z,66.16
2014-07-07T09:20:39.666Z,66.3
2014-07-07T09:21:44.355Z,65.83
2014-07-07T09:22:49.045Z,65
2014-07-07T09:23:53.719Z,64.19
2014-07-07T09:24:58.424Z,64.4
2014-07-07T09:26:03.129Z,64.33
2014-07-07T09:27:07.818Z,64.82
2014-07-07T09:28:12.508Z,67.74
2014-07-07T09:29:17.495Z,64.79
2014-07-07T09:30:22.481Z,65.04
2014-07-07T09:31:27.171Z,65.39
2014-07-07T09:32:32.156Z,65.5
2014-07-07T09:33:36.847Z,66.53
2014-07-07T09:34:41.535Z,64.44
2014-07-07T09:35:46.226Z,63.53
2014-07-07T09:36:50.914Z,63.81
2014-07-07T09:37:55.902Z,63.14
2014-07-07T09:39:00.887Z,63.52
2014-07-07T09:40:05.578Z,64.18
2014-07-07T09:41:10.267Z,62.91
2014-07-07T09:42:14.957Z,62.78
2014-07-07T09:43:19.631Z,62.31
2014-07-07T09:44:24.336Z,62.32
2014-07-07T09:45:29.025Z,62.86
2014-07-07T09:46:33.730Z,61.54
2014-07-07T09:47:38.404Z,60.2
2014-07-07T09:48:43.094Z,60.91
2014-07-07T09:49:48.144Z,60.97
2014-07-07T09:50:52.848Z,59.44
2014-07-07T09:51:57.834Z,61.48
2014-07-07T09:53:02.525Z,61.32
2014-07-07T09:54:07.511Z,62.05
2014-07-07T09:55:12.199Z,60.98
2014-07-07T09:56:16.890Z,63.26
2014-07-07T09:57:21.876Z,61.11
2014-07-07T09:58:26.550Z,60.39
2014-07-07T09:59:31.239Z,60.46
2014-07-07T10:00:35.992Z,59.06
2014-07-07T10:01:40.681Z,58.71
2014-07-07T10:02:45.371Z,58.99
2014-07-07T10:03:50.059Z,59.7
2014-07-07T10:04:54.750Z,58.4
2014-07-07T10:05:59.439Z,59
2014-07-07T10:07:04.426Z,59.95
2014-07-07T10:08:09.115Z,60.54
2014-07-07T10:09:13.805Z,60.13
2014-07-07T10:10:18.493Z,58.99
2014-07-07T10:11:23.184Z,57.64
2014-07-07T10:12:27.873Z,57.97
2014-07-07T10:13:32.563Z,57.97
2014-07-07T10:14:37.549Z,58.13
2014-07-07T10:15:42.238Z,59.36
2014-07-07T10:16:47.225Z,59.56
2014-07-07T10:17:51.914Z,59.4
2014-07-07T10:18:56.604Z,60.41
2014-07-07T10:20:01.277Z,60.27
2014-07-07T10:21:05.967Z,59.6
2014-07-07T10:22:10.659Z,61.5
2014-07-07T10:23:15.348Z,61.19
2014-07-07T10:24:20.052Z,60.27
2014-07-07T10:25:25.040Z,60.12
2014-07-07T10:26:29.729Z,57.66
2014-07-07T10:27:34.419Z,58.65
2014-07-07T10:28:39.108Z,57.63
2014-07-07T10:29:43.798Z,57.7
2014-07-07T10:30:48.487Z,57.2
2014-07-07T10:31:53.177Z,58.48
2014-07-07T10:32:57.866Z,59.53
2014-07-07T10:34:02.853Z,58.51
2014-07-07T10:35:07.542Z,58.65
2014-07-07T10:36:12.262Z,58.86
2014-07-07T10:37:17.249Z,57.26
2014-07-07T10:38:21.939Z,58.16
2014-07-07T10:39:26.925Z,58.64
2014-07-07T10:40:31.615Z,59.68
2014-07-07T10:41:36.305Z,57.97
2014-07-07T10:42:40.994Z,60.28
2014-07-07T10:43:45.981Z,58.29
2014-07-07T10:44:50.669Z,57.34
2014-07-07T10:45:55.953Z,57.09
2014-07-07T10:47:00.642Z,57.14
2014-07-07T10:48:05.333Z,58.46
2014-07-07T10:49:10.318Z,57.64
2014-07-07T10:50:15.008Z,56.49
2014-07-07T10:51:19.699Z,57.09
2014-07-07T10:52:24.389Z,57.42
2014-07-07T10:53:29.078Z,60.09
2014-07-07T10:54:33.768Z,59.25
2014-07-07T10:55:38.801Z,57.36
2014-07-07T10:56:43.490Z,56.95
2014-07-07T10:57:48.196Z,58.27
2014-07-07T10:58:52.885Z,58.22
2014-07-07T10:59:57.574Z,58.6
2014-07-07T11:01:02.561Z,58.48
2014-07-07T11:02:07.250Z,59.67
2014-07-07T11:03:11.941Z,60.12
2014-07-07T11:04:16.629Z,58.24
2014-07-07T11:05:21.320Z,58.17
2014-07-07T11:06:26.008Z,57.24
2014-07-07T11:07:30.699Z,59.74
2014-07-07T11:08:35.387Z,58.71
2014-07-07T11:09:40.078Z,57.94
2014-07-07T11:10:44.767Z,56.91
2014-07-07T11:11:49.754Z,58.83
2014-07-07T11:12:54.444Z,58.87
2014-07-07T11:13:59.133Z,58.67
2014-07-07T11:15:04.120Z,58.01
2014-07-07T11:16:09.105Z,57.48
2014-07-07T11:17:13.796Z,56.86
2014-07-07T11:18:18.484Z,56.63
2014-07-07T11:19:23.174Z,56.45
2014-07-07T11:20:27.864Z,57.17
2014-07-07T11:21:32.554Z,57.27
2014-07-07T11:22:37.243Z,58.39
2014-07-07T11:23:42.249Z,57.09
2014-07-07T11:24:47.011Z,57.66
2014-07-07T11:25:51.741Z,57.21
2014-07-07T11:26:56.768Z,57.33
2014-07-07T11:28:01.499Z,57.74
2014-07-07T11:29:06.502Z,58.85
2014-07-07T11:30:11.222Z,58.09
2014-07-07T11:31:15.927Z,57.4
2014-07-07T11:32:20.630Z,57.86
2014-07-07T11:33:25.333Z,57.89
2014-07-07T11:34:30.027Z,57.24
2014-07-07T11:35:35.019Z,57.04
2014-07-07T11:36:39.713Z,56.63
2014-07-07T11:37:44.408Z,57.82
2014-07-07T11:38:49.148Z,56.28
2014-07-07T11:39:54.137Z,55.17
2014-07-07T11:40:58.828Z,54.99
2014-07-07T11:42:03.520Z,55.05
2014-07-07T11:43:08.211Z,56.17
2014-07-07T11:44:12.902Z,55.68
2014-07-07T11:45:16.905Z,56.47
2014-07-07T11:46:21.595Z,56.74
2014-07-07T11:47:26.285Z,56.23
2014-07-07T11:48:31.288Z,55.97
2014-07-07T11:49:35.978Z,56.5
2014-07-07T11:50:40.667Z,56.25
2014-07-07T11:51:45.356Z,56.26
2014-07-07T11:52:50.047Z,56.27
2014-07-07T11:53:54.736Z,56.31
2014-07-07T11:54:59.426Z,55.36
2014-07-07T11:56:04.115Z,55.08
2014-07-07T11:57:08.805Z,56.24
2014-07-07T11:58:13.494Z,56.25
2014-07-07T11:59:18.184Z,57.54
2014-07-07T12:00:22.873Z,56.75
2014-07-07T12:01:27.563Z,55.91
2014-07-07T12:02:32.252Z,55.5
2014-07-07T12:03:36.942Z,55.65
2014-07-07T12:04:41.631Z,54.04
2014-07-07T12:05:46.322Z,53.74
2014-07-07T12:06:51.010Z,54.43
2014-07-07T12:07:55.701Z,53.59
2014-07-07T12:09:00.390Z,54.05
2014-07-07T12:10:05.080Z,53.56
2014-07-07T12:11:09.769Z,53.96
2014-07-07T12:12:14.459Z,53.07
2014-07-07T12:13:19.148Z,54.97
2014-07-07T12:14:23.838Z,53.84
2014-07-07T12:15:28.527Z,52.71
2014-07-07T12:16:33.218Z,54.14
2014-07-07T12:17:37.906Z,54.07
2014-07-07T12:18:42.612Z,54.72
2014-07-07T12:19:47.317Z,53.7
2014-07-07T12:20:52.600Z,54.55
2014-07-07T12:21:57.289Z,55.19
2014-07-07T12:23:01.980Z,55.12
2014-07-07T12:24:06.669Z,55.32
2014-07-07T12:25:11.359Z,56.73
2014-07-07T12:26:16.375Z,55.06
2014-07-07T12:27:21.065Z,54.31
2014-07-07T12:28:25.755Z,55.49
2014-07-07T12:29:30.445Z,55.41
2014-07-07T12:30:35.134Z,53.68
2014-07-07T12:31:39.824Z,54
2014-07-07T12:32:44.514Z,55.53
2014-07-07T12:33:49.203Z,55.52
2014-07-07T12:34:53.892Z,56.52
2014-07-07T12:35:58.582Z,56.71
2014-07-07T12:37:03.568Z,54.98
2014-07-07T12:38:08.259Z,54.18
2014-07-07T12:39:12.948Z,54.52
2014-07-07T12:40:17.638Z,55.36
2014-07-07T12:41:22.327Z,54.69
2014-07-07T12:42:27.032Z,53.77
2014-07-07T12:43:31.737Z,54.91
2014-07-07T12:44:36.427Z,54.66
2014-07-07T12:45:41.116Z,54.21
2014-07-07T12:46:45.806Z,54.73
2014-07-07T12:47:50.495Z,55.27
2014-07-07T12:48:55.185Z,54.95
2014-07-07T12:49:59.875Z,53.14
2014-07-07T12:51:04.564Z,55.02
2014-07-07T12:52:09.254Z,54.02
2014-07-07T12:53:14.256Z,56.28
2014-07-07T12:54:18.945Z,54.92
2014-07-07T12:55:23.932Z,56.04
2014-07-07T12:56:28.636Z,55.48
2014-07-07T12:57:33.327Z,54.01
2014-07-07T12:58:38.016Z,53.13
2014-07-07T12:59:43.315Z,53.61
2014-07-07T13:00:48.005Z,53.82
2014-07-07T13:01:52.694Z,53.67
2014-07-07T13:02:57.697Z,53.58
2014-07-07T13:04:02.698Z,54.28
2014-07-07T13:05:07.388Z,54.21
2014-07-07T13:06:12.374Z,52.5
2014-07-07T13:07:16.392Z,52.82
2014-07-07T13:08:21.082Z,53.84
2014-07-07T13:09:26.084Z,54.75
2014-07-07T13:10:30.773Z,54.43
2014-07-07T13:11:35.760Z,53.98
2014-07-07T13:12:40.450Z,53.86
2014-07-07T13:13:45.139Z,54.17
2014-07-07T13:14:49.844Z,55.11
2014-07-07T13:15:54.534Z,55.43
2014-07-07T13:16:59.223Z,55.05
2014-07-07T13:18:03.913Z,54.59
2014-07-07T13:19:08.602Z,54.63
2014-07-07T13:20:13.589Z,54.42
2014-07-07T13:21:18.278Z,53.61
2014-07-07T13:22:22.984Z,53.71
2014-07-07T13:23:27.971Z,54.25
2014-07-07T13:24:32.660Z,54.86
2014-07-07T13:25:37.350Z,54.71
2014-07-07T13:26:42.055Z,55.65
2014-07-07T13:27:47.041Z,55.11
2014-07-07T13:28:51.731Z,55.02
2014-07-07T13:29:56.420Z,55.59
2014-07-07T13:31:01.110Z,54.66
2014-07-07T13:32:05.799Z,54.46
2014-07-07T13:33:10.505Z,56.5
2014-07-07T13:34:15.194Z,56.94
2014-07-07T13:35:19.883Z,54.66
2014-07-07T13:36:24.574Z,55.16
2014-07-07T13:37:29.262Z,54.91
2014-07-07T13:38:33.561Z,56.69
2014-07-07T13:39:38.547Z,56.2
2014-07-07T13:40:43.237Z,55.54
2014-07-07T13:41:47.926Z,57.01
2014-07-07T13:42:52.913Z,56.3
2014-07-07T13:43:57.899Z,55.3
2014-07-07T13:45:02.588Z,56.09
2014-07-07T13:46:07.872Z,55.52
2014-07-07T13:47:12.577Z,55.66
2014-07-07T13:48:17.267Z,54.98
2014-07-07T13:49:21.956Z,56.38
2014-07-07T13:50:26.646Z,55.42
2014-07-07T13:51:31.335Z,55.07
2014-07-07T13:52:36.025Z,54.46
2014-07-07T13:53:41.011Z,54.34
2014-07-07T13:54:45.700Z,54.04
2014-07-07T13:55:50.390Z,54.66
2014-07-07T13:56:55.079Z,55.15